createdAt,value
2017-03-01T00:00:38.496Z,72.97
2017-03-01T00:01:48.889Z,73.07
2017-03-01T00:02:59.287Z,73.41
2017-03-01T00:04:08.897Z,73.22
2017-03-01T00:05:18.919Z,73.41
2017-03-01T00:06:29.702Z,73.51
2017-03-01T00:07:39.701Z,73.7
2017-03-01T00:08:49.716Z,73.7
2017-03-01T00:09:59.718Z,73.41
2017-03-01T00:11:10.488Z,73.41
2017-03-01T00:12:21.276Z,73.61
2017-03-01T00:13:31.655Z,73.7
2017-03-01T00:14:42.463Z,73.32
2017-03-01T00:15:52.847Z,73.51
2017-03-01T00:17:03.647Z,73.51
2017-03-01T00:18:14.439Z,73.51
2017-03-01T00:19:25.240Z,73.61
2017-03-01T00:20:35.652Z,73.61
2017-03-01T00:21:46.424Z,73.61
2017-03-01T00:22:56.815Z,73.32
2017-03-01T00:24:06.827Z,73.61
2017-03-01T00:25:17.213Z,73.61
2017-03-01T00:26:27.631Z,73.51
2017-03-01T00:27:38.402Z,73.61
2017-03-01T00:28:48.402Z,73.8
2017-03-01T00:29:58.442Z,73.51
2017-03-01T00:31:09.232Z,73.61
2017-03-01T00:32:19.618Z,73.51
2017-03-01T00:33:29.987Z,73.32
2017-03-01T00:34:39.563Z,73.32
2017-03-01T00:35:50.346Z,73.51
2017-03-01T00:37:00.757Z,73.41
2017-03-01T00:38:11.534Z,73.51
2017-03-01T00:39:21.130Z,73.61
2017-03-01T00:40:31.901Z,73.61
2017-03-01T00:41:42.673Z,73.51
2017-03-01T00:42:53.086Z,73.61
2017-03-01T00:44:03.877Z,73.61
2017-03-01T00:45:14.684Z,73.51
2017-03-01T00:46:25.521Z,73.51
2017-03-01T00:47:36.312Z,73.61
2017-03-01T00:48:47.138Z,73.61
2017-03-01T00:49:57.133Z,73.51
2017-03-01T00:51:07.530Z,73.51
2017-03-01T00:52:17.924Z,73.51
2017-03-01T00:53:28.695Z,73.41
2017-03-01T00:54:39.080Z,73.61
2017-03-01T00:55:49.474Z,73.32
2017-03-01T00:56:59.902Z,73.51
2017-03-01T00:58:09.924Z,74.08
2017-03-01T00:59:20.714Z,73.41
2017-03-01T01:00:31.096Z,74.08
2017-03-01T01:01:41.906Z,73.51
2017-03-01T01:02:52.922Z,73.41
2017-03-01T01:04:03.802Z,73.61
2017-03-01T01:05:14.202Z,73.61
2017-03-01T01:06:24.969Z,73.41
2017-03-01T01:07:34.938Z,73.41
2017-03-01T01:08:45.347Z,73.41
2017-03-01T01:09:56.129Z,73.41
2017-03-01T01:11:06.531Z,73.32
2017-03-01T01:12:16.933Z,73.41
2017-03-01T01:13:27.720Z,73.41
2017-03-01T01:14:38.510Z,73.41
2017-03-01T01:15:48.891Z,73.32
2017-03-01T01:16:59.274Z,73.41
2017-03-01T01:18:10.062Z,73.41
2017-03-01T01:19:20.063Z,73.32
2017-03-01T01:20:30.072Z,73.41
2017-03-01T01:21:40.862Z,73.41
2017-03-01T01:22:51.654Z,73.41
2017-03-01T01:24:01.635Z,73.32
2017-03-01T01:25:11.639Z,73.51
2017-03-01T01:26:22.012Z,73.51
2017-03-01T01:27:32.023Z,73.32
2017-03-01T01:28:42.802Z,73.51
2017-03-01T01:29:52.394Z,73.41
2017-03-01T01:31:02.792Z,73.51
2017-03-01T01:32:13.170Z,73.41
2017-03-01T01:33:23.548Z,73.61
2017-03-01T01:34:33.137Z,73.51
2017-03-01T01:35:43.938Z,73.7
2017-03-01T01:36:54.315Z,73.61
2017-03-01T01:38:05.129Z,73.32
2017-03-01T01:39:15.115Z,73.61
2017-03-01T01:40:25.553Z,73.32
2017-03-01T01:41:35.580Z,73.61
2017-03-01T01:42:45.988Z,73.32
2017-03-01T01:43:56.775Z,73.61
2017-03-01T01:45:07.572Z,73.41
2017-03-01T01:46:17.949Z,73.61
2017-03-01T01:47:28.732Z,73.32
2017-03-01T01:48:39.124Z,73.32
2017-03-01T01:49:49.112Z,73.61
2017-03-01T01:50:59.122Z,73.51
2017-03-01T01:52:09.520Z,73.7
2017-03-01T01:53:19.137Z,73.7
2017-03-01T01:54:29.901Z,73.51
2017-03-01T01:55:40.292Z,73.51
2017-03-01T01:56:51.093Z,73.32
2017-03-01T01:58:01.880Z,73.51
2017-03-01T01:59:12.268Z,73.51
2017-03-01T02:00:23.037Z,73.51
2017-03-01T02:01:33.411Z,73.51
2017-03-01T02:02:43.822Z,73.51
2017-03-01T02:03:54.615Z,73.41
2017-03-01T02:05:05.389Z,73.61
2017-03-01T02:06:15.783Z,73.51
2017-03-01T02:07:26.168Z,73.51
2017-03-01T02:08:36.960Z,73.51
2017-03-01T02:09:47.332Z,73.61
2017-03-01T02:10:58.113Z,73.32
2017-03-01T02:12:08.892Z,73.51
2017-03-01T02:13:19.667Z,73.61
2017-03-01T02:14:30.451Z,73.8
2017-03-01T02:15:41.231Z,73.51
2017-03-01T02:16:51.229Z,73.51
2017-03-01T02:18:01.224Z,73.41
2017-03-01T02:19:11.992Z,73.32
2017-03-01T02:20:22.787Z,73.51
2017-03-01T02:21:33.559Z,73.61
2017-03-01T02:22:43.952Z,73.51
2017-03-01T02:23:54.342Z,73.51
2017-03-01T02:25:05.115Z,73.51
2017-03-01T02:26:15.497Z,74.08
2017-03-01T02:27:25.488Z,73.61
2017-03-01T02:28:36.296Z,73.51
2017-03-01T02:29:45.866Z,73.61
2017-03-01T02:30:55.450Z,73.32
2017-03-01T02:32:05.066Z,73.32
2017-03-01T02:33:15.453Z,73.61
2017-03-01T02:34:25.468Z,73.61
2017-03-01T02:35:36.250Z,73.61
2017-03-01T02:36:47.070Z,73.8
2017-03-01T02:37:57.048Z,73.61
2017-03-01T02:39:07.840Z,73.8
2017-03-01T02:40:18.268Z,73.61
2017-03-01T02:41:28.657Z,73.41
2017-03-01T02:42:39.043Z,73.61
2017-03-01T02:43:49.833Z,73.61
2017-03-01T02:44:59.840Z,73.41
2017-03-01T02:46:10.647Z,73.61
2017-03-01T02:47:21.025Z,73.32
2017-03-01T02:48:31.022Z,73.8
2017-03-01T02:49:41.791Z,73.41
2017-03-01T02:50:52.562Z,73.61
2017-03-01T02:52:02.974Z,73.41
2017-03-01T02:53:13.774Z,73.32
2017-03-01T02:54:24.541Z,73.32
2017-03-01T02:55:34.926Z,73.41
2017-03-01T02:56:45.315Z,73.32
2017-03-01T02:57:56.110Z,73.51
2017-03-01T02:59:06.104Z,73.41
2017-03-01T03:00:15.347Z,73.51
2017-03-01T03:32:02.559Z,70.61
2017-03-01T03:33:12.944Z,70.99
2017-03-01T03:34:23.325Z,72.13
2017-03-01T03:35:34.090Z,72.99
2017-03-01T03:36:44.065Z,73.93
2017-03-01T03:37:54.061Z,73.84
2017-03-01T03:39:03.282Z,74.6
2017-03-01T03:40:13.666Z,74.41
2017-03-01T03:41:24.032Z,75.02
2017-03-01T03:42:34.007Z,75.11
2017-03-01T03:43:44.385Z,75.3
2017-03-01T03:44:54.840Z,75.21
2017-03-01T03:46:04.868Z,75.43
2017-03-01T03:47:15.640Z,75.53
2017-03-01T03:48:26.046Z,74.96
2017-03-01T03:49:36.444Z,74.87
2017-03-01T03:50:46.440Z,74.58
2017-03-01T03:51:57.231Z,74.77
2017-03-01T03:53:08.017Z,74.62
2017-03-01T03:54:18.800Z,74.24
2017-03-01T03:55:29.181Z,74.71
2017-03-01T03:56:39.562Z,74.71
2017-03-01T03:57:50.353Z,74.62
2017-03-01T03:59:01.148Z,74.52
2017-03-01T04:00:11.927Z,74.62
2017-03-01T04:01:22.765Z,74.56
2017-03-01T04:02:33.151Z,74.18
2017-03-01T04:03:43.958Z,74.08
2017-03-01T04:04:54.333Z,74.18
2017-03-01T04:06:05.103Z,73.99
2017-03-01T04:07:15.928Z,74.08
2017-03-01T04:08:26.322Z,73.99
2017-03-01T04:09:36.732Z,73.99
2017-03-01T04:10:47.529Z,73.99
2017-03-01T04:11:57.908Z,73.99
2017-03-01T04:13:08.293Z,73.89
2017-03-01T04:14:18.694Z,73.99
2017-03-01T04:15:29.477Z,73.99
2017-03-01T04:16:40.127Z,73.99
2017-03-01T04:17:50.521Z,73.99
2017-03-01T04:19:00.941Z,73.99
2017-03-01T04:20:10.948Z,73.99
2017-03-01T04:21:21.731Z,74.18
2017-03-01T04:22:32.112Z,73.89
2017-03-01T04:23:42.913Z,73.99
2017-03-01T04:24:53.330Z,73.8
2017-03-01T04:26:03.332Z,73.99
2017-03-01T04:27:13.724Z,73.89
2017-03-01T04:28:24.529Z,74.08
2017-03-01T04:29:35.323Z,73.8
2017-03-01T04:30:46.095Z,73.89
2017-03-01T04:31:56.881Z,73.89
2017-03-01T04:33:07.272Z,73.8
2017-03-01T04:34:17.660Z,73.8
2017-03-01T04:35:28.436Z,73.99
2017-03-01T04:36:38.427Z,73.89
2017-03-01T04:37:48.798Z,74.18
2017-03-01T04:38:59.582Z,73.99
2017-03-01T04:40:10.383Z,73.99
2017-03-01T04:41:21.165Z,74.08
2017-03-01T04:42:31.566Z,74.08
2017-03-01T04:43:42.336Z,74.18
2017-03-01T04:44:52.338Z,73.99
2017-03-01T04:46:03.141Z,73.99
2017-03-01T04:47:13.132Z,74.27
2017-03-01T04:48:23.521Z,74.08
2017-03-01T04:49:34.329Z,74.08
2017-03-01T04:50:44.736Z,74.08
2017-03-01T04:51:54.349Z,73.99
2017-03-01T04:53:04.764Z,73.61
2017-03-01T04:54:15.149Z,73.99
2017-03-01T04:55:25.564Z,73.7
2017-03-01T04:56:36.335Z,73.89
2017-03-01T04:57:46.732Z,73.7
2017-03-01T04:58:57.528Z,73.89
2017-03-01T05:00:07.931Z,74.18
2017-03-01T05:01:18.697Z,73.99
2017-03-01T05:02:29.499Z,74.08
2017-03-01T05:03:40.301Z,74.18
2017-03-01T05:04:51.087Z,73.8
2017-03-01T05:06:01.871Z,73.8
2017-03-01T05:07:12.271Z,73.89
2017-03-01T05:08:22.272Z,73.7
2017-03-01T05:09:33.077Z,73.7
2017-03-01T05:10:43.505Z,73.8
2017-03-01T05:11:53.516Z,73.61
2017-03-01T05:13:03.520Z,73.7
2017-03-01T05:14:14.315Z,73.7
2017-03-01T05:15:25.119Z,73.8
2017-03-01T05:16:35.894Z,73.8
2017-03-01T05:17:46.292Z,73.8
2017-03-01T05:18:55.897Z,73.99
2017-03-01T05:20:06.273Z,73.8
2017-03-01T05:21:16.647Z,73.99
2017-03-01T05:22:27.060Z,73.8
2017-03-01T05:23:37.059Z,73.7
2017-03-01T05:24:47.438Z,74.18
2017-03-01T05:25:58.224Z,74.08
2017-03-01T05:27:08.215Z,73.8
2017-03-01T05:28:18.593Z,73.57
2017-03-01T05:29:28.969Z,73.76
2017-03-01T05:30:39.732Z,73.57
2017-03-01T05:31:49.336Z,73.7
2017-03-01T05:33:00.108Z,73.57
2017-03-01T05:34:10.905Z,74.08
2017-03-01T05:35:21.314Z,73.66
2017-03-01T05:36:31.690Z,73.95
2017-03-01T05:37:42.095Z,73.76
2017-03-01T05:38:52.866Z,73.95
2017-03-01T05:40:02.829Z,74.04
2017-03-01T05:41:13.232Z,73.95
2017-03-01T05:42:23.608Z,73.57
2017-03-01T05:43:34.033Z,73.85
2017-03-01T05:44:44.808Z,73.57
2017-03-01T05:45:55.175Z,73.57
2017-03-01T05:47:05.560Z,73.85
2017-03-01T05:48:15.545Z,73.85
2017-03-01T05:49:26.315Z,73.95
2017-03-01T05:50:36.709Z,73.85
2017-03-01T05:51:47.484Z,73.38
2017-03-01T05:52:57.892Z,73.57
2017-03-01T05:54:07.885Z,73.47
2017-03-01T05:55:18.270Z,73.57
2017-03-01T05:56:29.061Z,73.57
2017-03-01T05:57:39.839Z,73.57
2017-03-01T05:58:50.631Z,73.47
2017-03-01T06:00:01.414Z,73.57
2017-03-01T06:01:11.007Z,73.47
2017-03-01T06:02:21.386Z,73.28
2017-03-01T06:03:32.177Z,73.47
2017-03-01T06:04:42.569Z,73.57
2017-03-01T06:05:52.954Z,73.47
2017-03-01T06:07:03.333Z,73.19
2017-03-01T06:08:13.751Z,73
2017-03-01T06:09:24.145Z,73.1
2017-03-01T06:10:34.163Z,73.13
2017-03-01T06:11:44.961Z,72.81
2017-03-01T06:12:55.747Z,72.9
2017-03-01T06:14:06.135Z,73
2017-03-01T06:15:16.907Z,73.03
2017-03-01T06:16:26.917Z,72.94
2017-03-01T06:17:37.684Z,72.94
2017-03-01T06:18:48.471Z,73.03
2017-03-01T06:19:58.871Z,72.94
2017-03-01T06:21:09.651Z,73.13
2017-03-01T06:22:19.623Z,72.85
2017-03-01T06:23:30.424Z,73.03
2017-03-01T06:24:40.808Z,72.94
2017-03-01T06:25:51.621Z,72.85
2017-03-01T06:27:02.025Z,72.94
2017-03-01T06:28:12.824Z,72.94
2017-03-01T06:29:22.824Z,72.85
2017-03-01T06:30:33.612Z,72.94
2017-03-01T06:31:44.017Z,72.94
2017-03-01T06:32:54.391Z,72.94
2017-03-01T06:34:05.185Z,72.94
2017-03-01T06:35:15.586Z,72.94
2017-03-01T06:36:25.583Z,72.94
2017-03-01T06:37:35.972Z,72.94
2017-03-01T06:38:45.990Z,73.03
2017-03-01T06:39:56.407Z,73.61
2017-03-01T06:41:06.799Z,72.94
2017-03-01T06:42:17.558Z,72.94
2017-03-01T06:43:27.937Z,72.94
2017-03-01T06:44:38.339Z,73.03
2017-03-01T06:45:48.743Z,72.85
2017-03-01T06:46:59.532Z,72.85
2017-03-01T06:48:09.919Z,72.94
2017-03-01T06:49:20.715Z,72.85
2017-03-01T06:50:31.107Z,72.94
2017-03-01T06:51:41.904Z,72.94
2017-03-01T06:52:52.283Z,72.75
2017-03-01T06:54:02.291Z,73.13
2017-03-01T06:55:12.304Z,72.94
2017-03-01T06:56:23.069Z,72.85
2017-03-01T06:57:33.874Z,72.97
2017-03-01T06:58:43.864Z,73.07
2017-03-01T06:59:54.233Z,73.17
2017-03-01T07:01:05.009Z,72.97
2017-03-01T07:02:15.410Z,73.17
2017-03-01T07:03:25.863Z,72.97
2017-03-01T07:04:36.243Z,73.17
2017-03-01T07:05:47.042Z,72.97
2017-03-01T07:06:57.437Z,73.17
2017-03-01T07:08:07.823Z,73.07
2017-03-01T07:09:18.607Z,72.88
2017-03-01T07:10:29.394Z,72.88
2017-03-01T07:11:40.195Z,72.5
2017-03-01T07:12:50.989Z,73.26
2017-03-01T07:14:01.768Z,72.41
2017-03-01T07:15:12.552Z,72.6
2017-03-01T07:16:23.341Z,72.63
2017-03-01T07:17:33.725Z,73.01
2017-03-01T07:18:44.125Z,73.11
2017-03-01T07:19:54.491Z,73.01
2017-03-01T07:21:04.875Z,73.3
2017-03-01T07:22:15.680Z,73.11
2017-03-01T07:23:26.472Z,72.92
2017-03-01T07:24:36.473Z,73.01
2017-03-01T07:25:46.846Z,72.25
2017-03-01T07:26:56.837Z,72.44
2017-03-01T07:28:07.243Z,72.25
2017-03-01T07:29:18.026Z,72.63
2017-03-01T07:30:28.845Z,72.63
2017-03-01T07:31:39.264Z,72.53
2017-03-01T07:32:49.665Z,72.63
2017-03-01T07:33:59.649Z,72.44
2017-03-01T07:35:09.629Z,72.44
2017-03-01T07:36:19.610Z,72.34
2017-03-01T07:37:30.009Z,71.96
2017-03-01T07:38:40.394Z,72.16
2017-03-01T07:39:51.167Z,72.16
2017-03-01T07:41:01.192Z,72.44
2017-03-01T07:42:11.961Z,72.16
2017-03-01T07:43:22.751Z,72.19
2017-03-01T07:44:33.129Z,72.38
2017-03-01T07:45:43.526Z,72.19
2017-03-01T07:46:53.938Z,72.09
2017-03-01T07:48:04.728Z,72.09
2017-03-01T07:49:15.133Z,72
2017-03-01T07:50:25.135Z,72.09
2017-03-01T07:51:35.892Z,71.81
2017-03-01T07:52:46.675Z,72.28
2017-03-01T07:53:56.693Z,72.28
2017-03-01T07:55:07.119Z,72.09
2017-03-01T07:56:17.912Z,71.81
2017-03-01T07:57:28.707Z,72.28
2017-03-01T07:58:39.494Z,72.28
2017-03-01T07:59:50.286Z,72.09
2017-03-01T08:01:00.287Z,72.19
2017-03-01T08:02:11.101Z,72
2017-03-01T08:03:21.896Z,71.81
2017-03-01T08:04:32.192Z,71.81
2017-03-01T08:05:43.006Z,72.09
2017-03-01T08:06:53.386Z,72.09
2017-03-01T08:08:03.382Z,71.84
2017-03-01T08:09:14.006Z,71.75
2017-03-01T08:10:24.801Z,71.75
2017-03-01T08:11:34.414Z,72.03
2017-03-01T08:12:44.818Z,72.03
2017-03-01T08:13:54.811Z,72.32
2017-03-01T08:15:05.222Z,72.32
2017-03-01T08:16:15.220Z,72.32
2017-03-01T08:17:25.615Z,72.13
2017-03-01T08:18:36.406Z,71.66
2017-03-01T08:19:47.208Z,71.66
2017-03-01T08:20:57.580Z,71.75
2017-03-01T08:22:07.572Z,71.66
2017-03-01T08:23:17.590Z,71.56
2017-03-01T08:24:27.581Z,71.75
2017-03-01T08:25:37.574Z,71.56
2017-03-01T08:26:48.360Z,71.56
2017-03-01T08:27:58.729Z,71.56
2017-03-01T08:29:09.509Z,71.88
2017-03-01T08:30:20.300Z,71.69
2017-03-01T08:31:30.702Z,71.31
2017-03-01T08:32:41.479Z,71.41
2017-03-01T08:33:51.481Z,71.5
2017-03-01T08:35:02.267Z,70.92
2017-03-01T08:36:13.083Z,71.41
2017-03-01T08:37:23.873Z,71.41
2017-03-01T08:38:34.262Z,71.5
2017-03-01T08:39:44.650Z,71.31
2017-03-01T08:40:55.060Z,71.31
2017-03-01T08:42:05.875Z,71.34
2017-03-01T08:43:16.294Z,71.34
2017-03-01T08:44:26.702Z,71.25
2017-03-01T08:45:36.688Z,71.25
2017-03-01T08:46:47.069Z,71.34
2017-03-01T08:47:57.447Z,71.34
2017-03-01T08:49:07.815Z,71.44
2017-03-01T08:50:18.611Z,71.34
2017-03-01T08:51:29.017Z,71.06
2017-03-01T08:52:39.802Z,70.96
2017-03-01T08:53:50.585Z,70.67
2017-03-01T08:55:01.384Z,70.96
2017-03-01T08:56:12.172Z,70.96
2017-03-01T08:57:22.955Z,70.87
2017-03-01T08:58:33.788Z,70.87
2017-03-01T08:59:44.573Z,70.87
2017-03-01T09:00:54.972Z,70.77
2017-03-01T09:02:05.755Z,70.96
2017-03-01T09:03:16.564Z,70.77
2017-03-01T09:04:26.951Z,71.34
2017-03-01T09:05:37.347Z,71.44
2017-03-01T09:06:47.727Z,71.25
2017-03-01T09:07:58.496Z,71.34
2017-03-01T09:09:08.897Z,71.53
2017-03-01T09:10:18.514Z,71.63
2017-03-01T09:11:28.921Z,71.15
2017-03-01T09:12:39.762Z,71.34
2017-03-01T09:13:50.147Z,71.06
2017-03-01T09:15:00.526Z,71.34
2017-03-01T09:16:11.309Z,71.15
2017-03-01T09:17:21.340Z,71.15
2017-03-01T09:18:32.207Z,71.34
2017-03-01T09:19:42.623Z,71.34
2017-03-01T09:20:53.646Z,71.44
2017-03-01T09:22:04.055Z,71.25
2017-03-01T09:23:14.848Z,70.96
2017-03-01T09:24:25.690Z,71.34
2017-03-01T09:25:36.552Z,71.06
2017-03-01T09:26:47.354Z,71.34
2017-03-01T09:27:58.161Z,71.44
2017-03-01T09:29:08.173Z,71.34
2017-03-01T09:30:18.975Z,71.34
2017-03-01T09:31:29.770Z,71.34
2017-03-01T09:32:40.181Z,70.96
2017-03-01T09:33:50.589Z,70.87
2017-03-01T09:35:00.976Z,70.61
2017-03-01T09:36:10.973Z,70.33
2017-03-01T09:37:20.983Z,70.14
2017-03-01T09:38:31.407Z,70.33
2017-03-01T09:39:41.825Z,70.33
2017-03-01T09:40:52.609Z,70.33
2017-03-01T09:42:03.423Z,70.14
2017-03-01T09:43:14.222Z,70.33
2017-03-01T09:44:25.013Z,70.33
2017-03-01T09:45:35.804Z,70.17
2017-03-01T09:46:46.220Z,70.33
2017-03-01T09:47:56.625Z,70.52
2017-03-01T09:49:07.050Z,71
2017-03-01T09:50:17.432Z,70.9
2017-03-01T09:51:28.222Z,70.9
2017-03-01T09:52:38.229Z,71.19
2017-03-01T09:53:48.994Z,71.47
2017-03-01T09:54:59.430Z,71.28
2017-03-01T09:56:09.834Z,71.47
2017-03-01T09:57:19.869Z,71
2017-03-01T09:58:29.889Z,71
2017-03-01T09:59:40.334Z,71
2017-03-01T10:00:50.728Z,70.9
2017-03-01T10:02:01.130Z,70.27
2017-03-01T10:03:11.137Z,70.36
2017-03-01T10:04:21.971Z,70.65
2017-03-01T10:05:32.365Z,70.07
2017-03-01T10:06:42.769Z,70.46
2017-03-01T10:07:53.578Z,70.36
2017-03-01T10:09:04.383Z,69.98
2017-03-01T10:10:15.184Z,69.89
2017-03-01T10:11:25.179Z,70.01
2017-03-01T10:12:35.161Z,69.73
2017-03-01T10:13:45.941Z,69.64
2017-03-01T10:14:55.934Z,69.73
2017-03-01T10:16:05.958Z,69.67
2017-03-01T10:17:16.333Z,69.19
2017-03-01T10:18:26.724Z,69.38
2017-03-01T10:19:37.535Z,69.57
2017-03-01T10:20:47.928Z,68.94
2017-03-01T10:21:58.315Z,69.51
2017-03-01T10:23:09.117Z,69.23
2017-03-01T10:24:19.935Z,69.03
2017-03-01T10:25:30.329Z,69.07
2017-03-01T10:26:40.346Z,69.42
2017-03-01T10:27:51.145Z,69.17
2017-03-01T10:29:01.564Z,69.45
2017-03-01T10:30:11.824Z,69.17
2017-03-01T10:31:22.275Z,69.17
2017-03-01T10:32:32.329Z,69.35
2017-03-01T10:33:42.736Z,69.07
2017-03-01T10:34:53.164Z,69.07
2017-03-01T10:36:03.552Z,69.35
2017-03-01T10:37:14.351Z,69.64
2017-03-01T10:38:24.780Z,69.64
2017-03-01T10:39:35.434Z,69.64
2017-03-01T10:40:45.833Z,69.83
2017-03-01T10:41:56.622Z,69.74
2017-03-01T10:43:07.434Z,69.54
2017-03-01T10:44:17.878Z,69.74
2017-03-01T10:45:28.701Z,70.21
2017-03-01T10:46:39.522Z,70.31
2017-03-01T10:47:50.321Z,69.93
2017-03-01T10:49:01.100Z,70.03
2017-03-01T10:50:11.905Z,70.03
2017-03-01T10:51:22.698Z,70.03
2017-03-01T10:52:33.098Z,70.21
2017-03-01T10:53:43.886Z,70.18
2017-03-01T10:54:54.281Z,70.18
2017-03-01T10:56:05.065Z,70.18
2017-03-01T10:57:15.091Z,70.21
2017-03-01T10:58:25.916Z,70.03
2017-03-01T10:59:35.533Z,70.03
2017-03-01T11:00:45.933Z,69.45
2017-03-01T11:01:56.296Z,69.83
2017-03-01T11:03:06.718Z,70.03
2017-03-01T11:04:17.091Z,69.7
2017-03-01T11:05:27.914Z,69.99
2017-03-01T11:06:38.299Z,69.7
2017-03-01T11:07:49.114Z,69.89
2017-03-01T11:08:59.944Z,69.99
2017-03-01T11:10:10.357Z,69.99
2017-03-01T11:11:21.170Z,69.89
2017-03-01T11:12:31.996Z,69.6
2017-03-01T11:13:42.408Z,69.45
2017-03-01T11:14:52.814Z,69.26
2017-03-01T11:16:03.611Z,69.17
2017-03-01T11:17:14.410Z,68.3
2017-03-01T11:18:24.806Z,68.43
2017-03-01T11:19:35.623Z,68.62
2017-03-01T11:20:46.417Z,68.72
2017-03-01T11:21:56.847Z,69.48
2017-03-01T11:23:07.638Z,69.29
2017-03-01T11:24:18.446Z,68.91
2017-03-01T11:25:28.846Z,69.48
2017-03-01T11:26:39.237Z,69.77
2017-03-01T11:27:49.689Z,70.21
2017-03-01T11:29:00.082Z,69.93
2017-03-01T11:30:10.858Z,70.12
2017-03-01T11:31:21.274Z,70.21
2017-03-01T11:32:31.682Z,69.35
2017-03-01T11:33:42.495Z,69.29
2017-03-01T11:34:52.909Z,69.52
2017-03-01T11:36:03.295Z,69.29
2017-03-01T11:37:14.074Z,69.1
2017-03-01T11:38:24.105Z,69.29
2017-03-01T11:39:34.493Z,68.91
2017-03-01T11:40:45.307Z,68.46
2017-03-01T11:41:55.690Z,68.95
2017-03-01T11:43:05.693Z,68.3
2017-03-01T11:44:16.495Z,68.12
2017-03-01T11:45:26.896Z,68.24
2017-03-01T11:46:37.296Z,68.69
2017-03-01T11:47:47.705Z,68.79
2017-03-01T11:48:58.143Z,68.79
2017-03-01T11:50:08.951Z,69.59
2017-03-01T11:51:19.740Z,68.98
2017-03-01T11:52:30.564Z,68.79
2017-03-01T11:53:40.970Z,68.88
2017-03-01T11:54:51.357Z,69.01
2017-03-01T11:56:01.395Z,68.91
2017-03-01T11:57:11.845Z,69.78
2017-03-01T11:58:22.662Z,70.23
2017-03-01T11:59:33.047Z,69.9
2017-03-01T12:00:43.083Z,70.32
2017-03-01T12:01:53.882Z,69.81
2017-03-01T12:03:04.711Z,69.56
2017-03-01T12:04:15.510Z,69.01
2017-03-01T12:05:25.909Z,70.13
2017-03-01T12:06:36.728Z,70.9
2017-03-01T12:07:47.558Z,70.29
2017-03-01T12:08:58.009Z,71.25
2017-03-01T12:10:08.012Z,69.81
2017-03-01T12:11:18.819Z,69.33
2017-03-01T12:12:28.851Z,69.74
2017-03-01T12:13:39.645Z,70.19
2017-03-01T12:14:49.673Z,69.93
2017-03-01T12:16:00.063Z,70.57
2017-03-01T12:17:10.101Z,71.11
2017-03-01T12:18:20.516Z,71.5
2017-03-01T12:19:30.951Z,71.59
2017-03-01T12:20:41.373Z,71.27
2017-03-01T12:21:51.368Z,71.56
2017-03-01T12:23:01.774Z,69.96
2017-03-01T12:24:12.200Z,69.81
2017-03-01T12:25:22.594Z,70.48
2017-03-01T12:26:32.969Z,71.21
2017-03-01T12:27:43.783Z,71.59
2017-03-01T12:28:54.208Z,71.75
2017-03-01T12:30:04.238Z,71.56
2017-03-01T12:31:14.640Z,71.17
2017-03-01T12:32:25.057Z,70.83
2017-03-01T12:33:35.855Z,68.66
2017-03-01T12:34:46.286Z,67.63
2017-03-01T12:35:57.090Z,67.86
2017-03-01T12:37:07.883Z,69.4
2017-03-01T12:38:18.285Z,69.26
2017-03-01T12:39:29.072Z,68.91
2017-03-01T12:40:39.876Z,68.63
2017-03-01T12:41:49.878Z,68.44
2017-03-01T12:43:00.290Z,68.47
2017-03-01T12:44:11.101Z,68.47
2017-03-01T12:45:21.517Z,68.37
2017-03-01T12:46:32.333Z,68.21
2017-03-01T12:47:42.336Z,67.83
2017-03-01T12:48:53.162Z,68.02
2017-03-01T12:50:03.557Z,67.93
2017-03-01T12:51:14.368Z,68.15
2017-03-01T12:52:25.167Z,68.06
2017-03-01T12:53:35.155Z,68.06
2017-03-01T12:54:45.960Z,69.69
2017-03-01T12:55:55.969Z,69.72
2017-03-01T12:57:06.359Z,68.51
2017-03-01T12:58:17.146Z,68.6
2017-03-01T12:59:27.581Z,68.6
2017-03-01T13:00:38.374Z,68.89
2017-03-01T13:01:48.798Z,69.08
2017-03-01T13:02:59.232Z,68.6
2017-03-01T13:04:09.664Z,68.54
2017-03-01T13:05:20.077Z,70.07
2017-03-01T13:06:30.509Z,70.01
2017-03-01T13:07:41.579Z,69.34
2017-03-01T13:08:52.393Z,68.98
2017-03-01T13:10:02.797Z,69.46
2017-03-01T13:11:13.276Z,69.34
2017-03-01T13:12:23.656Z,68.41
2017-03-01T13:13:34.064Z,68.25
2017-03-01T13:14:44.090Z,68.54
2017-03-01T13:15:54.912Z,69.95
2017-03-01T13:17:05.718Z,70.01
2017-03-01T13:18:16.520Z,70.78
2017-03-01T13:19:27.300Z,71.41
2017-03-01T13:20:37.722Z,71.28
2017-03-01T13:21:48.120Z,71.37
2017-03-01T13:22:58.908Z,71.66
2017-03-01T13:24:09.708Z,71.09
2017-03-01T13:25:20.094Z,69.68
2017-03-01T13:26:30.523Z,69.53
2017-03-01T13:27:40.516Z,70.07
2017-03-01T13:28:50.568Z,70.23
2017-03-01T13:30:01.372Z,69.78
2017-03-01T13:31:11.372Z,68.82
2017-03-01T13:32:21.380Z,68.95
2017-03-01T13:33:31.408Z,69.72
2017-03-01T13:34:41.825Z,68.66
2017-03-01T13:35:52.635Z,68.98
2017-03-01T13:37:02.637Z,69.43
2017-03-01T13:38:13.044Z,70.1
2017-03-01T13:39:23.475Z,70.64
2017-03-01T13:40:33.879Z,69.97
2017-03-01T13:41:44.669Z,69.01
2017-03-01T13:42:55.109Z,69.53
2017-03-01T13:44:05.927Z,69.24
2017-03-01T13:45:16.375Z,69.05
2017-03-01T13:46:26.381Z,68.85
2017-03-01T13:47:37.176Z,68.95
2017-03-01T13:48:47.579Z,68.85
2017-03-01T13:49:57.995Z,68.6
2017-03-01T13:51:08.050Z,68.7
2017-03-01T13:52:18.462Z,69.05
2017-03-01T13:53:28.485Z,69.46
2017-03-01T13:54:38.871Z,69.24
2017-03-01T13:55:49.298Z,69.24
2017-03-01T13:57:00.137Z,69.43
2017-03-01T13:58:10.170Z,69.34
2017-03-01T13:59:20.965Z,69.05
2017-03-01T14:00:31.768Z,69.62
2017-03-01T14:01:42.173Z,70.1
2017-03-01T14:02:52.596Z,69.05
2017-03-01T14:04:03.400Z,70.26
2017-03-01T14:05:14.226Z,71.19
2017-03-01T14:06:25.045Z,72.01
2017-03-01T14:07:35.838Z,71.59
2017-03-01T14:08:46.244Z,71.5
2017-03-01T14:09:56.630Z,72.17
2017-03-01T14:11:07.477Z,72.61
2017-03-01T14:12:18.277Z,72.86
2017-03-01T14:13:29.096Z,72.48
2017-03-01T14:14:39.491Z,73.44
2017-03-01T14:15:49.878Z,72.73
2017-03-01T14:17:00.671Z,72.34
2017-03-01T14:18:11.078Z,71.23
2017-03-01T14:19:21.069Z,70.5
2017-03-01T14:20:30.705Z,70.31
2017-03-01T14:21:40.720Z,71.46
2017-03-01T14:22:51.128Z,71.04
2017-03-01T14:24:01.937Z,70.5
2017-03-01T14:25:11.928Z,70.41
2017-03-01T14:26:22.321Z,71.75
2017-03-01T14:27:32.736Z,71.62
2017-03-01T14:28:43.527Z,71.62
2017-03-01T14:29:53.536Z,71.62
2017-03-01T14:31:04.339Z,71.39
2017-03-01T14:32:15.158Z,71.04
2017-03-01T14:33:25.992Z,71.42
2017-03-01T14:34:36.027Z,71.14
2017-03-01T14:35:46.821Z,70.76
2017-03-01T14:36:56.854Z,70.47
2017-03-01T14:38:07.656Z,71.23
2017-03-01T14:39:18.037Z,71.23
2017-03-01T14:40:28.424Z,70.28
2017-03-01T14:41:38.436Z,70.56
2017-03-01T14:42:49.231Z,70.79
2017-03-01T14:43:59.636Z,70.41
2017-03-01T14:45:10.487Z,70.6
2017-03-01T14:46:20.904Z,71.17
2017-03-01T14:47:31.327Z,71.81
2017-03-01T14:48:41.707Z,72.63
2017-03-01T14:49:52.117Z,72.34
2017-03-01T14:51:02.929Z,72.6
2017-03-01T14:52:13.330Z,72.88
2017-03-01T14:53:24.108Z,72.69
2017-03-01T14:54:34.917Z,72.69
2017-03-01T14:55:45.727Z,72.6
2017-03-01T14:56:56.541Z,72.22
2017-03-01T14:58:06.169Z,72.22
2017-03-01T14:59:16.582Z,72.12
2017-03-01T15:00:27.401Z,72.12
2017-03-01T15:01:38.204Z,70.87
2017-03-01T15:02:48.643Z,70.43
2017-03-01T15:03:59.059Z,69.67
2017-03-01T15:05:09.894Z,70.37
2017-03-01T15:06:20.317Z,70.09
2017-03-01T15:07:30.751Z,70.76
2017-03-01T15:08:41.552Z,71.23
2017-03-01T15:09:51.945Z,71.48
2017-03-01T15:11:02.773Z,71.3
2017-03-01T15:12:13.583Z,71.39
2017-03-01T15:13:24.377Z,70.18
2017-03-01T15:14:34.787Z,70.18
2017-03-01T15:15:45.194Z,69.89
2017-03-01T15:16:55.620Z,70.41
2017-03-01T15:18:06.040Z,70.98
2017-03-01T15:19:16.843Z,70.5
2017-03-01T15:20:27.635Z,70.31
2017-03-01T15:21:38.461Z,70.03
2017-03-01T15:22:48.884Z,70.5
2017-03-01T15:23:59.687Z,70.5
2017-03-01T15:25:10.509Z,70.41
2017-03-01T15:26:21.296Z,70.41
2017-03-01T15:27:31.283Z,70.79
2017-03-01T15:28:41.698Z,70.31
2017-03-01T15:29:52.102Z,71.14
2017-03-01T15:31:02.888Z,70.85
2017-03-01T15:32:13.302Z,71.42
2017-03-01T15:33:23.758Z,71.33
2017-03-01T15:34:34.575Z,71.33
2017-03-01T15:35:44.986Z,71.52
2017-03-01T15:36:55.818Z,71.14
2017-03-01T15:38:05.821Z,71.2
2017-03-01T15:39:16.659Z,71.48
2017-03-01T15:40:27.075Z,71.58
2017-03-01T15:41:37.496Z,71.23